Impacts TAF Board
For situational awareness. Not to be used for flight planning purposes.
IDs:

KPDX - Portland Intl Arpt, OR, US

Issued at 1750 UTC 22 Sep 2020
Updated at 2053 UTC 22 Sep 2020
Potential Impact None Slight Moderate High
Time1953Z 22/21Z 22/22Z 22/23Z 23/00Z 23/01Z 23/02Z 23/03Z 23/04Z 23/05Z 23/06Z 23/07Z 23/08Z 23/09Z>>
Type OBS PRVL PRVL PRVL PRVL PRVL PRVL PRVL PRVL PRVL PRVL PRVL PRVL PRVL
VIS 10 >6 >6 >6 >6 >6 >6 >6 >6 >6 >6 >6 >6 >6
CIG -- 150 150 150 150 150 150 150 150 150 150 150 150 150
Cover SCT BKN BKN BKN BKN BKN BKN BKN BKN BKN BKN BKN BKN BKN
FltCat VFR VFR VFR VFR VFR VFR VFR VFR VFR VFR VFR VFR VFR VFR
WX -- -- -- -- -- -- -- -- -- -- -- -- -- --
WDir VRB 190 190 190 190 190 190 190 190 190 190 190 190 190
WSpd 0 7 7 7 7 7 7 7 7 7 7 7 7 7
WGst -- -- -- -- -- -- -- -- -- -- -- -- -- --
Raw TAF
KPDX 221750Z 2218/2318 19006KT P6SM FEW020 BKN040
  FM222100 19007KT P6SM SCT050 BKN150
  FM231000 15014KT P6SM SCT025 BKN040 OVC070


Raw METAR
KPDX 221953Z 00000KT 10SM SCT040 SCT250 21/13 A3003 RMK AO2 SLP166 T02110133
KPDX 221853Z 00000KT 10SM SCT024 BKN041 20/13 A3004 RMK AO2 SLP173 T02000133
KPDX 221753Z VRB03KT 10SM BKN020 BKN041 19/13 A3006 RMK AO2 SLP177 T01940133 10194 20161 53005

METAR Board
Radar Display
Forecast Discussion
For situational awareness. Not to be used for flight planning purposes.